createdAt,value
2023-03-30T00:01:50.753Z,2.15
2023-03-30T00:04:37.508Z,2.35
2023-03-30T00:07:25.256Z,2.75
2023-03-30T00:10:19.573Z,2.03
2023-03-30T00:13:06.125Z,2.00
2023-03-30T00:15:52.446Z,2.20
2023-03-30T00:18:39.759Z,1.80
2023-03-30T00:21:25.629Z,2.13
2023-03-30T00:24:11.921Z,2.00
2023-03-30T00:26:58.063Z,1.90
2023-03-30T00:29:44.033Z,1.85
2023-03-30T00:32:30.034Z,2.00
2023-03-30T00:35:16.548Z,2.10
2023-03-30T00:38:03.244Z,2.00
2023-03-30T00:40:54.431Z,1.85
2023-03-30T00:44:34.525Z,1.70
2023-03-30T00:47:22.136Z,2.20
2023-03-30T00:50:09.663Z,2.30
2023-03-30T00:52:58.798Z,1.88
2023-03-30T00:55:47.293Z,2.10
2023-03-30T00:58:36.005Z,1.77
2023-03-30T01:01:29.108Z,1.70
2023-03-30T01:04:17.042Z,1.77
2023-03-30T01:07:04.370Z,2.45
2023-03-30T01:09:52.958Z,1.83
2023-03-30T01:12:39.483Z,1.80
2023-03-30T01:15:26.434Z,2.25
2023-03-30T01:18:27.426Z,1.95
2023-03-30T01:21:40.685Z,1.88
2023-03-30T01:25:02.969Z,1.92
2023-03-30T01:28:08.063Z,1.80
2023-03-30T01:31:25.544Z,1.95
2023-03-30T01:34:24.570Z,1.60
2023-03-30T01:40:21.164Z,2.03
2023-03-30T01:43:18.010Z,1.85
2023-03-30T01:46:30.790Z,1.63
2023-03-30T01:49:30.572Z,1.70
2023-03-30T01:52:38.554Z,1.85
2023-03-30T01:55:30.456Z,2.00
2023-03-30T01:58:23.947Z,1.95
2023-03-30T02:01:13.600Z,1.60
2023-03-30T02:04:01.890Z,1.90
2023-03-30T02:06:56.919Z,1.90
2023-03-30T02:09:45.881Z,1.98
2023-03-30T02:12:32.578Z,2.20
2023-03-30T02:15:19.878Z,2.30
2023-03-30T02:18:06.076Z,2.20
2023-03-30T02:23:42.349Z,1.85
2023-03-30T02:26:29.651Z,2.08
2023-03-30T02:29:17.273Z,2.22
2023-03-30T02:32:03.829Z,1.90
2023-03-30T02:35:19.162Z,1.60
2023-03-30T02:38:23.237Z,2.10
2023-03-30T02:45:02.386Z,1.60
2023-03-30T02:48:00.522Z,1.88
2023-03-30T02:51:21.820Z,1.90
2023-03-30T02:54:37.567Z,1.83
2023-03-30T02:58:25.725Z,2.15
2023-03-30T03:01:41.256Z,1.80
2023-03-30T03:04:35.426Z,2.03
2023-03-30T03:07:38.735Z,2.28
2023-03-30T03:10:25.636Z,2.10
2023-03-30T03:13:11.847Z,1.90
2023-03-30T03:16:03.583Z,1.85
2023-03-30T03:18:50.671Z,2.30
2023-03-30T03:21:37.509Z,2.40
2023-03-30T03:24:23.496Z,2.42
2023-03-30T03:27:42.246Z,2.55
2023-03-30T03:30:37.928Z,2.40
2023-03-30T03:33:31.908Z,2.30
2023-03-30T03:36:26.644Z,2.40
2023-03-30T03:39:13.269Z,2.38
2023-03-30T03:42:00.339Z,2.50
2023-03-30T03:47:33.865Z,1.92
2023-03-30T03:50:21.049Z,2.50
2023-03-30T03:53:08.499Z,2.20
2023-03-30T03:55:56.425Z,2.45
2023-03-30T03:58:42.938Z,2.42
2023-03-30T04:01:30.050Z,2.40
2023-03-30T04:04:16.795Z,2.63
2023-03-30T04:07:02.685Z,2.58
2023-03-30T04:09:48.585Z,3.25
2023-03-30T04:13:10.312Z,2.60
2023-03-30T04:16:08.549Z,2.08
2023-03-30T04:19:09.000Z,2.20
2023-03-30T04:22:13.662Z,2.45
2023-03-30T04:25:29.085Z,2.50
2023-03-30T04:28:44.760Z,2.75
2023-03-30T04:31:42.319Z,2.58
2023-03-30T04:34:34.350Z,2.53
2023-03-30T04:37:58.088Z,2.30
2023-03-30T04:41:02.300Z,2.17
2023-03-30T04:44:10.512Z,2.80
2023-03-30T04:47:15.342Z,2.70
2023-03-30T04:50:19.857Z,2.42
2023-03-30T04:53:24.686Z,2.50
2023-03-30T04:56:29.546Z,1.88
2023-03-30T04:59:36.278Z,2.80
2023-03-30T05:02:42.163Z,2.78
2023-03-30T05:05:45.095Z,2.80
2023-03-30T05:08:51.650Z,2.45
2023-03-30T05:11:53.516Z,2.22
2023-03-30T05:14:50.969Z,2.33
2023-03-30T05:17:46.247Z,2.47
2023-03-30T05:20:59.000Z,2.45
2023-03-30T05:24:17.197Z,2.72
2023-03-30T05:30:26.658Z,2.80
2023-03-30T05:33:45.170Z,2.38
2023-03-30T05:36:37.615Z,2.63
2023-03-30T05:39:36.234Z,2.60
2023-03-30T05:42:41.320Z,2.55
2023-03-30T05:45:50.490Z,2.75
2023-03-30T05:48:52.742Z,2.42
2023-03-30T05:51:52.115Z,2.30
2023-03-30T05:55:10.390Z,2.15
2023-03-30T05:58:18.063Z,2.25
2023-03-30T06:01:22.987Z,2.83
2023-03-30T06:06:56.585Z,2.33
2023-03-30T06:09:43.671Z,2.65
2023-03-30T06:12:41.607Z,2.63
2023-03-30T06:15:38.100Z,3.08
2023-03-30T06:18:27.269Z,2.60
2023-03-30T06:21:22.172Z,2.60
2023-03-30T06:24:43.433Z,2.50
2023-03-30T06:27:32.825Z,2.35
2023-03-30T06:30:19.945Z,3.22
2023-03-30T06:33:10.140Z,3.50
2023-03-30T06:36:02.353Z,3.03
2023-03-30T06:38:49.535Z,2.60
2023-03-30T06:41:37.160Z,2.65
2023-03-30T06:44:24.369Z,2.20
2023-03-30T06:47:11.098Z,3.00
2023-03-30T06:49:57.318Z,2.50
2023-03-30T06:53:06.852Z,2.45
2023-03-30T06:56:00.077Z,2.88
2023-03-30T06:58:57.380Z,2.80
2023-03-30T07:01:44.219Z,2.50
2023-03-30T07:05:01.058Z,2.60
2023-03-30T07:07:55.343Z,2.67
2023-03-30T07:10:42.988Z,2.72
2023-03-30T07:13:34.301Z,2.40
2023-03-30T07:16:20.860Z,2.75
2023-03-30T07:19:07.439Z,2.50
2023-03-30T07:21:53.618Z,2.60
2023-03-30T07:24:44.869Z,2.55
2023-03-30T07:27:31.230Z,2.75
2023-03-30T07:30:22.263Z,2.22
2023-03-30T07:33:15.855Z,2.10
2023-03-30T07:36:04.202Z,2.35
2023-03-30T07:38:51.980Z,2.53
2023-03-30T07:41:38.327Z,2.40
2023-03-30T07:44:29.103Z,2.55
2023-03-30T07:47:16.616Z,2.70
2023-03-30T07:50:04.072Z,2.80
2023-03-30T07:52:51.754Z,2.38
2023-03-30T07:55:37.990Z,2.28
2023-03-30T07:58:44.027Z,2.90
2023-03-30T08:01:31.500Z,2.30
2023-03-30T08:04:44.711Z,2.47
2023-03-30T08:07:35.089Z,2.45
2023-03-30T08:10:29.838Z,2.20
2023-03-30T08:13:16.211Z,2.30
2023-03-30T08:16:03.892Z,2.25
2023-03-30T08:21:40.737Z,3.10
2023-03-30T08:24:26.893Z,2.22
2023-03-30T08:27:12.935Z,2.30
2023-03-30T08:29:58.829Z,2.20
2023-03-30T08:32:44.739Z,2.40
2023-03-30T08:35:31.095Z,2.08
2023-03-30T08:38:17.300Z,3.00
2023-03-30T08:41:24.892Z,2.28
2023-03-30T08:44:28.091Z,3.00
2023-03-30T08:47:31.963Z,2.70
2023-03-30T08:50:33.808Z,2.40
2023-03-30T08:53:20.175Z,2.30
2023-03-30T08:56:14.059Z,2.40
2023-03-30T08:59:12.432Z,2.25
2023-03-30T09:02:19.440Z,2.53
2023-03-30T09:05:23.191Z,2.60
2023-03-30T09:08:22.805Z,3.63
2023-03-30T09:11:17.876Z,2.50
2023-03-30T09:14:07.312Z,2.50
2023-03-30T09:17:05.526Z,2.88
2023-03-30T09:19:58.787Z,3.42
2023-03-30T09:22:45.637Z,2.30
2023-03-30T09:25:45.939Z,2.65
2023-03-30T09:28:38.726Z,2.35
2023-03-30T09:31:41.461Z,2.33
2023-03-30T09:34:53.198Z,2.55
2023-03-30T09:37:39.875Z,2.47
2023-03-30T09:43:46.031Z,2.53
2023-03-30T09:46:32.218Z,2.13
2023-03-30T09:49:18.322Z,2.55
2023-03-30T09:52:07.177Z,2.30
2023-03-30T09:54:53.263Z,2.22
2023-03-30T09:57:39.285Z,2.45
2023-03-30T10:00:33.612Z,2.63
2023-03-30T10:03:22.813Z,2.33
2023-03-30T10:06:16.000Z,2.05
2023-03-30T10:09:06.268Z,2.95
2023-03-30T10:11:55.285Z,3.05
2023-03-30T10:14:41.914Z,2.42
2023-03-30T10:17:29.402Z,2.30
2023-03-30T10:20:23.848Z,2.45
2023-03-30T10:23:19.151Z,2.05
2023-03-30T10:26:10.379Z,2.63
2023-03-30T10:29:11.013Z,2.30
2023-03-30T10:32:11.923Z,2.72
2023-03-30T10:35:02.094Z,3.03
2023-03-30T10:37:52.253Z,2.90
2023-03-30T10:40:44.338Z,2.38
2023-03-30T10:43:33.196Z,2.42
2023-03-30T10:46:24.346Z,2.40
2023-03-30T10:49:15.487Z,2.20
2023-03-30T10:52:20.938Z,2.50
2023-03-30T10:55:39.056Z,2.45
2023-03-30T10:59:02.868Z,3.08
2023-03-30T11:02:00.946Z,2.45
2023-03-30T11:04:59.150Z,2.22
2023-03-30T11:08:04.624Z,2.75
2023-03-30T11:10:55.744Z,2.40
2023-03-30T11:13:47.377Z,2.50
2023-03-30T11:16:47.794Z,2.55
2023-03-30T11:19:42.811Z,2.40
2023-03-30T11:22:43.643Z,2.40
2023-03-30T11:25:54.049Z,2.75
2023-03-30T11:28:50.337Z,2.50
2023-03-30T11:31:46.908Z,2.58
2023-03-30T11:34:46.702Z,2.42
2023-03-30T11:37:35.920Z,2.40
2023-03-30T11:40:23.638Z,2.30
2023-03-30T11:43:19.152Z,2.35
2023-03-30T11:46:27.799Z,2.30
2023-03-30T11:50:05.128Z,2.22
2023-03-30T11:53:05.577Z,2.33
2023-03-30T11:56:05.742Z,3.20
2023-03-30T11:59:09.100Z,2.78
2023-03-30T12:02:26.591Z,2.90
2023-03-30T12:05:19.390Z,2.83
2023-03-30T12:08:11.553Z,3.05
2023-03-30T12:11:27.977Z,2.72
2023-03-30T12:14:41.211Z,2.83
2023-03-30T12:17:39.753Z,2.92
2023-03-30T12:20:51.909Z,3.05
2023-03-30T12:24:00.504Z,2.75
2023-03-30T12:27:02.210Z,2.70
2023-03-30T12:30:01.475Z,2.20
2023-03-30T12:33:19.610Z,2.60
2023-03-30T12:36:26.241Z,2.55
2023-03-30T12:39:31.150Z,2.60
2023-03-30T12:42:26.246Z,2.30
2023-03-30T12:45:15.406Z,2.50
2023-03-30T12:48:17.263Z,2.70
2023-03-30T12:51:37.856Z,2.20
2023-03-30T12:54:41.393Z,2.22
2023-03-30T12:57:27.661Z,2.10
2023-03-30T13:00:26.534Z,2.60
2023-03-30T13:03:25.924Z,2.45
2023-03-30T13:06:26.605Z,2.55
2023-03-30T13:09:15.622Z,2.50
2023-03-30T13:12:01.612Z,2.40
2023-03-30T13:14:56.443Z,2.50
2023-03-30T13:18:08.976Z,2.25
2023-03-30T13:20:55.659Z,2.50
2023-03-30T13:23:44.663Z,2.15
2023-03-30T13:26:41.963Z,2.10
2023-03-30T13:29:30.919Z,1.80
2023-03-30T13:32:35.673Z,2.20
2023-03-30T13:35:34.963Z,2.10
2023-03-30T13:38:24.065Z,2.42
2023-03-30T13:41:26.038Z,1.83
2023-03-30T13:44:38.575Z,1.77
2023-03-30T13:47:29.933Z,2.30
2023-03-30T13:50:26.206Z,1.95
2023-03-30T13:53:17.208Z,2.28
2023-03-30T13:56:07.972Z,2.10
2023-03-30T13:59:15.582Z,1.95
2023-03-30T14:02:05.977Z,2.15
2023-03-30T14:04:51.985Z,2.40
2023-03-30T14:07:43.544Z,2.05
2023-03-30T14:10:29.826Z,1.75
2023-03-30T14:13:18.653Z,2.00
2023-03-30T14:16:06.063Z,1.85
2023-03-30T14:18:54.337Z,1.92
2023-03-30T14:21:44.979Z,2.50
2023-03-30T14:24:35.739Z,2.10
2023-03-30T14:27:21.972Z,2.20
2023-03-30T14:30:34.875Z,2.15
2023-03-30T14:33:21.536Z,2.33
2023-03-30T14:36:11.889Z,2.25
2023-03-30T14:39:18.704Z,2.28
2023-03-30T14:42:17.663Z,2.58
2023-03-30T14:45:10.489Z,2.50
2023-03-30T14:47:56.927Z,2.63
2023-03-30T14:53:36.979Z,2.67
2023-03-30T14:56:24.241Z,2.85
2023-03-30T14:59:13.009Z,2.65
2023-03-30T15:02:00.015Z,2.58
2023-03-30T15:07:33.699Z,2.53
2023-03-30T15:10:35.361Z,3.00
2023-03-30T15:13:52.753Z,2.70
2023-03-30T15:16:39.280Z,2.42
2023-03-30T15:19:31.887Z,2.80
2023-03-30T15:22:29.290Z,3.10
2023-03-30T15:25:21.203Z,3.42
2023-03-30T15:28:14.947Z,2.88
2023-03-30T15:31:01.499Z,3.00
2023-03-30T15:33:52.229Z,3.00
2023-03-30T15:36:40.033Z,3.15
2023-03-30T15:39:34.161Z,3.10
2023-03-30T15:42:30.418Z,2.88
2023-03-30T15:45:16.603Z,2.67
2023-03-30T15:48:02.960Z,3.10
2023-03-30T15:51:03.948Z,2.80
2023-03-30T15:54:00.920Z,2.88
2023-03-30T15:56:48.738Z,2.80
2023-03-30T15:59:43.241Z,3.33
2023-03-30T16:02:32.583Z,2.80
2023-03-30T16:05:24.500Z,3.40
2023-03-30T16:08:10.726Z,3.20
2023-03-30T16:10:57.794Z,2.80
2023-03-30T16:13:48.953Z,2.80
2023-03-30T16:16:35.201Z,2.40
2023-03-30T16:19:22.760Z,2.50
2023-03-30T16:22:11.466Z,2.88
2023-03-30T16:24:57.459Z,2.45
2023-03-30T16:27:45.025Z,2.53
2023-03-30T16:30:34.930Z,2.42
2023-03-30T16:33:21.054Z,2.45
2023-03-30T16:36:07.474Z,2.50
2023-03-30T16:38:54.071Z,2.60
2023-03-30T16:41:39.970Z,2.55
2023-03-30T16:44:26.207Z,2.67
2023-03-30T16:47:12.765Z,2.60
2023-03-30T16:49:59.593Z,2.67
2023-03-30T16:52:45.801Z,2.97
2023-03-30T16:55:32.864Z,2.70
2023-03-30T16:58:19.150Z,2.70
2023-03-30T17:01:05.640Z,2.90
2023-03-30T17:03:53.917Z,3.03
2023-03-30T17:06:40.238Z,2.90
2023-03-30T17:09:27.275Z,2.70
2023-03-30T17:12:13.598Z,2.90
2023-03-30T17:14:59.585Z,3.05
2023-03-30T17:17:45.941Z,3.33
2023-03-30T17:20:42.406Z,2.75
2023-03-30T17:23:31.990Z,2.80
2023-03-30T17:26:18.726Z,2.90
2023-03-30T17:29:04.636Z,2.95
2023-03-30T17:31:50.560Z,3.30
2023-03-30T17:34:36.796Z,3.28
2023-03-30T17:37:23.114Z,2.80
2023-03-30T17:40:24.420Z,3.10
2023-03-30T17:43:11.307Z,3.22
2023-03-30T17:45:57.433Z,3.10
2023-03-30T17:48:43.816Z,2.80
2023-03-30T17:51:29.820Z,3.00
2023-03-30T17:54:15.816Z,3.00
2023-03-30T17:57:01.896Z,2.97
2023-03-30T17:59:48.290Z,3.10
2023-03-30T18:02:34.268Z,3.22
2023-03-30T18:05:22.752Z,3.03
2023-03-30T18:08:21.385Z,3.45
2023-03-30T18:11:07.598Z,2.95
2023-03-30T18:13:54.004Z,2.75
2023-03-30T18:16:42.714Z,2.72
2023-03-30T18:19:29.919Z,3.20
2023-03-30T18:22:16.200Z,2.97
2023-03-30T18:25:02.305Z,3.60
2023-03-30T18:27:48.835Z,2.80
2023-03-30T18:30:38.824Z,3.08
2023-03-30T18:33:25.851Z,2.60
2023-03-30T18:36:13.126Z,3.33
2023-03-30T18:39:00.233Z,2.50
2023-03-30T18:41:46.295Z,2.80
2023-03-30T18:44:32.453Z,2.60
2023-03-30T18:47:18.602Z,2.80
2023-03-30T18:50:33.365Z,2.50
2023-03-30T18:53:25.043Z,2.38
2023-03-30T18:56:12.134Z,2.50
2023-03-30T18:59:02.347Z,2.63
2023-03-30T19:01:49.609Z,2.53
2023-03-30T19:04:35.891Z,2.60
2023-03-30T19:07:24.596Z,2.50
2023-03-30T19:10:13.320Z,2.58
2023-03-30T19:12:59.427Z,2.67
2023-03-30T19:15:47.025Z,2.90
2023-03-30T19:18:32.914Z,2.75
2023-03-30T19:21:19.099Z,2.53
2023-03-30T19:24:05.409Z,2.83
2023-03-30T19:26:51.866Z,3.00
2023-03-30T19:29:39.537Z,3.30
2023-03-30T19:32:25.833Z,2.80
2023-03-30T19:35:13.792Z,2.53
2023-03-30T19:38:00.122Z,2.75
2023-03-30T19:40:46.037Z,2.42
2023-03-30T19:43:31.998Z,2.50
2023-03-30T19:46:18.272Z,2.53
2023-03-30T19:49:04.808Z,2.63
2023-03-30T19:51:52.947Z,2.83
2023-03-30T19:54:38.826Z,2.90
2023-03-30T19:57:24.818Z,3.13
2023-03-30T20:00:15.164Z,3.20
2023-03-30T20:03:01.696Z,3.08
2023-03-30T20:05:50.398Z,2.97
2023-03-30T20:08:37.634Z,2.63
2023-03-30T20:11:23.714Z,2.33
2023-03-30T20:14:09.683Z,2.40
2023-03-30T20:16:55.954Z,2.67
2023-03-30T20:19:42.649Z,2.58
2023-03-30T20:22:28.969Z,2.38
2023-03-30T20:25:16.955Z,2.63
2023-03-30T20:28:03.449Z,2.60
2023-03-30T20:30:49.836Z,2.33
2023-03-30T20:33:36.269Z,2.50
2023-03-30T20:36:23.431Z,2.13
2023-03-30T20:39:10.169Z,2.30
2023-03-30T20:41:58.415Z,2.33
2023-03-30T20:44:50.141Z,2.90
2023-03-30T20:47:37.111Z,2.33
2023-03-30T20:50:25.784Z,2.50
2023-03-30T20:53:11.755Z,2.58
2023-03-30T20:55:58.175Z,2.58
2023-03-30T20:58:47.255Z,2.22
2023-03-30T21:01:34.154Z,2.63
2023-03-30T21:04:21.123Z,2.17
2023-03-30T21:07:10.613Z,2.55
2023-03-30T21:09:56.988Z,2.75
2023-03-30T21:12:43.356Z,2.63
2023-03-30T21:15:29.322Z,2.50
2023-03-30T21:18:15.709Z,2.75
2023-03-30T21:21:02.308Z,2.30
2023-03-30T21:23:48.702Z,2.03
2023-03-30T21:26:35.346Z,1.90
2023-03-30T21:29:22.660Z,1.92
2023-03-30T21:32:08.936Z,1.88
2023-03-30T21:34:55.359Z,2.15
2023-03-30T21:37:41.294Z,2.05
2023-03-30T21:40:27.372Z,2.17
2023-03-30T21:43:13.584Z,2.10
2023-03-30T21:46:02.737Z,2.08
2023-03-30T21:48:53.077Z,1.92
2023-03-30T21:51:40.130Z,2.30
2023-03-30T21:54:26.223Z,2.30
2023-03-30T21:57:12.212Z,2.20
2023-03-30T21:59:58.208Z,2.33
2023-03-30T22:02:44.623Z,2.17
2023-03-30T22:05:31.289Z,2.13
2023-03-30T22:08:18.107Z,2.10
2023-03-30T22:11:11.555Z,2.15
2023-03-30T22:13:58.186Z,2.20
2023-03-30T22:16:44.221Z,2.45
2023-03-30T22:19:32.024Z,2.05
2023-03-30T22:22:18.560Z,2.13
2023-03-30T22:25:05.232Z,2.15
2023-03-30T22:27:54.071Z,2.63
2023-03-30T22:30:42.457Z,2.47
2023-03-30T22:33:29.055Z,2.10
2023-03-30T22:36:20.714Z,2.50
2023-03-30T22:39:06.863Z,2.10
2023-03-30T22:41:53.139Z,2.83
2023-03-30T22:44:39.121Z,2.33
2023-03-30T22:47:25.462Z,2.60
2023-03-30T22:50:11.735Z,2.40
2023-03-30T22:52:57.996Z,2.58
2023-03-30T22:55:47.915Z,2.63
2023-03-30T22:58:35.557Z,2.45
2023-03-30T23:01:21.692Z,2.70
2023-03-30T23:04:12.064Z,2.65
2023-03-30T23:07:00.733Z,2.85
2023-03-30T23:09:47.524Z,2.92
2023-03-30T23:12:34.976Z,3.30
2023-03-30T23:15:24.122Z,2.70
2023-03-30T23:18:10.089Z,3.22
2023-03-30T23:20:57.922Z,2.90
2023-03-30T23:23:43.787Z,2.83
2023-03-30T23:26:29.901Z,2.90
2023-03-30T23:29:16.127Z,3.00
2023-03-30T23:32:02.375Z,3.00
2023-03-30T23:34:48.358Z,2.78
2023-03-30T23:37:36.909Z,3.03
2023-03-30T23:40:22.764Z,2.97
2023-03-30T23:43:08.852Z,2.97
2023-03-30T23:45:55.139Z,3.00
2023-03-30T23:48:42.140Z,3.15
2023-03-30T23:51:28.146Z,3.17
2023-03-30T23:54:15.833Z,3.28
2023-03-30T23:57:04.482Z,3.15
2023-03-30T23:59:50.616Z,3.30
